Bookmark and Share
Track history (hours):
 

Zaliv Amerika

Last reported at 2014-Apr-23 10:32 UTC. Time now 2014-Apr-25 06:25 UTC.
Position N 01°13' E 103°56'.

Length 244 m; draft 11.6 m.

Type: Tanker. MMSI: 210435000.

NotesDate/timePositionNaut miles runAvg speedWind from/ knotsBaromVisibWave heightAir tempDewpointWater temp
2014-Apr-23 10:32N 01°13' E 103°56'1111.2
2014-Apr-23 09:32N 01°08' E 103°46'13 6.4
2014-Apr-23 07:32N 01°10' E 103°34'8 7.9
2014-Apr-23 06:33N 01°12' E 103°41'0 0.3
2014-Apr-23 05:29N 01°12' E 103°42'0 0.0
2014-Apr-23 04:32N 01°12' E 103°42'0 0.0
2014-Apr-23 03:31N 01°12' E 103°42'0 0.0
2014-Apr-23 02:07N 01°12' E 103°42'0 0.0
2014-Apr-23 01:30N 01°12' E 103°42'0 0.0
2014-Apr-23 00:30N 01°12' E 103°42'0 0.0
2014-Apr-22 23:29N 01°12' E 103°42'0 0.0
2014-Apr-22 22:23N 01°12' E 103°42'0 0.0
2014-Apr-22 21:17N 01°12' E 103°42'0 0.0
2014-Apr-22 20:22N 01°12' E 103°42'1 1.6
2014-Apr-22 19:33N 01°11' E 103°40'7 7.2
2014-Apr-22 18:33N 01°17' E 103°45'1 0.8
2014-Apr-22 17:32N 01°17' E 103°44'0 0.0
2014-Apr-22 16:32N 01°17' E 103°44'0 0.0
2014-Apr-22 15:32N 01°17' E 103°44'0 0.0
2014-Apr-22 14:31N 01°17' E 103°44'0 0.0
2014-Apr-22 13:31N 01°17' E 103°44'0 0.0
2014-Apr-22 12:33N 01°17' E 103°44'0 0.0
2014-Apr-22 11:33N 01°17' E 103°44'0 0.0
2014-Apr-22 10:29N 01°17' E 103°44'0 0.0
2014-Apr-22 09:29N 01°17' E 103°44'0 0.0
2014-Apr-22 08:32N 01°17' E 103°44'0 0.0
2014-Apr-22 07:31N 01°17' E 103°44'0 0.0
2014-Apr-22 06:31N 01°17' E 103°44'0 0.0
2014-Apr-22 05:30N 01°17' E 103°44'0 0.0
2014-Apr-22 04:33N 01°17' E 103°44'0 0.0
2014-Apr-22 03:32N 01°17' E 103°44'1 0.8
2014-Apr-22 02:33N 01°17' E 103°44'4 4.5
2014-Apr-22 01:33N 01°13' E 103°42'2 2.1
2014-Apr-22 00:33N 01°13' E 103°40'0 0.0
2014-Apr-21 23:34N 01°13' E 103°40'0 0.0
2014-Apr-21 22:34N 01°13' E 103°40'4 4.3
2014-Apr-21 21:33N 01°12' E 103°35'1 1.3
2014-Apr-21 20:26N 01°13' E 103°34'1 1.5
2014-Apr-21 19:32N 01°14' E 103°33'2 1.8
2014-Apr-21 18:33N 01°14' E 103°31'1 0.1
2014-Apr-21 10:15N 01°15' E 103°30'0 0.0
2014-Apr-20 20:27N 01°15' E 103°30'0 0.0
2014-Apr-20 07:21N 01°15' E 103°30'0 0.0
2014-Apr-20 05:30N 01°15' E 103°30'0 0.0
2014-Apr-20 04:23N 01°15' E 103°30'0 0.0
2014-Apr-19 21:20N 01°15' E 103°30'0 0.1
2014-Apr-19 20:34N 01°15' E 103°30'2 2.1
2014-Apr-19 19:34N 01°15' E 103°32'2 1.8
2014-Apr-19 18:29N 01°15' E 103°34'0 0.0
2014-Apr-19 16:25N 01°15' E 103°34'0 0.0
2014-Apr-19 12:20N 01°15' E 103°34'0 0.0
2014-Apr-19 10:28N 01°15' E 103°34'0 0.1
2014-Apr-19 09:31N 01°15' E 103°34'0 0.0
2014-Apr-19 08:31N 01°15' E 103°34'0 0.0
2014-Apr-19 07:33N 01°15' E 103°34'0 0.0
2014-Apr-19 06:27N 01°15' E 103°34'0 0.0
2014-Apr-19 05:05N 01°15' E 103°34'0 0.0
2014-Apr-18 23:20N 01°15' E 103°34'0 0.0
2014-Apr-18 22:32N 01°15' E 103°34'0 0.0
2014-Apr-18 21:32N 01°15' E 103°34'0 0.1
2014-Apr-18 20:31N 01°15' E 103°34'0 0.0
2014-Apr-18 19:31N 01°15' E 103°34'0 0.0
2014-Apr-18 18:25N 01°15' E 103°34'0 0.0
2014-Apr-18 17:33N 01°15' E 103°34'0 0.1
2014-Apr-18 16:27N 01°15' E 103°34'0 0.0
2014-Apr-18 15:29N 01°15' E 103°34'0 0.0
2014-Apr-18 13:31N 01°15' E 103°34'0 0.0
2014-Apr-18 12:10N 01°15' E 103°34'0 0.0
2014-Apr-18 11:34N 01°15' E 103°34'0 0.0
2014-Apr-18 09:33N 01°15' E 103°34'0 0.1
2014-Apr-18 08:26N 01°15' E 103°34'0 0.0
2014-Apr-18 07:32N 01°15' E 103°34'0 0.0
2014-Apr-18 06:31N 01°15' E 103°34'0 0.0
2014-Apr-18 04:30N 01°15' E 103°34'0 0.0
2014-Apr-18 03:33N 01°15' E 103°34'0 0.0
2014-Apr-18 00:32N 01°15' E 103°34'0 0.0
2014-Apr-17 23:31N 01°15' E 103°34'0 0.0
2014-Apr-17 22:28N 01°15' E 103°34'0 0.1
2014-Apr-17 21:27N 01°15' E 103°34'0 0.0
2014-Apr-17 20:21N 01°15' E 103°34'0 0.1
2014-Apr-17 19:24N 01°15' E 103°34'0 0.0
2014-Apr-17 18:29N 01°15' E 103°34'0 0.0
2014-Apr-17 17:32N 01°15' E 103°34'0 0.1
2014-Apr-17 16:25N 01°15' E 103°34'0 0.0
2014-Apr-17 14:27N 01°15' E 103°34'0 0.1
2014-Apr-17 13:21N 01°15' E 103°34'0 0.0
2014-Apr-17 11:14N 01°15' E 103°34'0 0.0
2014-Apr-17 09:07N 01°15' E 103°34'0 0.0
2014-Apr-17 08:28N 01°15' E 103°34'0 0.1
2014-Apr-17 07:18N 01°15' E 103°34'0 0.1
2014-Apr-17 06:30N 01°15' E 103°34'0 0.1
2014-Apr-17 05:33N 01°15' E 103°34'0 0.0
2014-Apr-17 04:32N 01°15' E 103°34'0 0.0
2014-Apr-17 03:29N 01°15' E 103°34'0 0.0
2014-Apr-17 00:27N 01°15' E 103°34'0 0.0
2014-Apr-16 22:32N 01°15' E 103°34'0 0.1
2014-Apr-16 21:20N 01°15' E 103°34'0 0.0
2014-Apr-16 20:32N 01°15' E 103°34'0 0.0
2014-Apr-16 18:28N 01°15' E 103°34'0 0.0
2014-Apr-16 17:33N 01°15' E 103°34'0 0.0
2014-Apr-16 16:33N 01°15' E 103°34'0 0.1
2014-Apr-16 15:23N 01°15' E 103°34'0 0.0
2014-Apr-16 09:27N 01°15' E 103°34'0 0.3
2014-Apr-16 08:33N 01°15' E 103°34'0 0.5
2014-Apr-16 07:28N 01°15' E 103°34'0 0.0
2014-Apr-16 06:33N 01°15' E 103°34'0 0.0
2014-Apr-16 05:15N 01°15' E 103°34'0 0.0
2014-Apr-16 04:32N 01°15' E 103°34'0 0.0
2014-Apr-16 02:25N 01°15' E 103°34'0 0.0
2014-Apr-15 21:23N 01°15' E 103°34'0 0.0
2014-Apr-15 20:17N 01°15' E 103°34'0 0.0
2014-Apr-15 19:22N 01°15' E 103°34'0 0.0
2014-Apr-15 18:22N 01°15' E 103°34'0 0.0
2014-Apr-15 17:21N 01°15' E 103°34'0 0.0
2014-Apr-15 16:21N 01°15' E 103°34'0 0.0
2014-Apr-15 15:33N 01°15' E 103°34'0 0.0
2014-Apr-15 14:32N 01°15' E 103°34'0 0.0
2014-Apr-15 10:31N 01°15' E 103°34'0 0.0
2014-Apr-15 08:31N 01°15' E 103°34'0 0.0
2014-Apr-15 06:33N 01°15' E 103°34'0 0.0
2014-Apr-15 05:32N 01°15' E 103°34'0 0.0
2014-Apr-15 02:34N 01°15' E 103°34'0 0.0
2014-Apr-15 01:33N 01°15' E 103°34'0 0.0
2014-Apr-14 20:31N 01°15' E 103°34'0 0.0
2014-Apr-14 17:30N 01°15' E 103°34'  

Dump ship's entire track history

sailing weather and tide predictions

Zaliv Amerika — C4ZR2 — position and weather